Terminal Aerodrome Forecast
Issued by NWS

Home | Current Version | Previous Version | Text Only | Print | Product List | Glossary On
Versions: 1 2 3 4 5 6 7 8 9 10 11 12 13 14 15
000
FTUS44 KEPZ 230500
TAFLRU
TAF
KLRU 230522Z 2306/2406 13008KT P6SM VCSH SCT015 BKN020 BKN100
      TEMPO 2306/2310 BKN015 OVC030
     FM231900 16008KT P6SM VCTS SCT030 SCT050CB SCT100
     FM240000 13008KT P6SM SCT050 SCT100 SCT200=

USA.gov is the U.S. government's official web portal to all federal, state and local government web resources and services.